Sovereign — 9HUE9 — position and weather

sailwx.info

Track history (hours):
 
Tides and Currents Weather Stations Pressure Air Temp Water Temp Dewpoint Dewpoint Depression Visibility Wind Speed Wind Dir Waves Ship Positions

Sovereign

Last reported at 2017-May-29 20:30 UTC. Time now 2017-May-29 20:39 UTC.
Position N 40°44' E 013°16'.

Length 269 m; draft 7.8 m.

Type: Passenger vessel. MMSI: 249539000.

Date/timePositionNaut miles runAvg speedWind from/ knotsBaromVisibWave heightAir tempDewpointWater temp
2017-May-29 20:30N 40°44' E 013°16'815.7
2017-May-29 19:58N 40°42' E 013°27'715.6
2017-May-29 19:30N 40°40' E 013°36'815.8
2017-May-29 19:00N 40°38' E 013°46'815.7
2017-May-29 18:30N 40°38' E 013°56'714.7
2017-May-29 18:00N 40°41' E 014°05'916.0
2017-May-29 17:28N 40°46' E 014°14'4 8.9
2017-May-29 17:00N 40°50' E 014°16'0 0.1
2017-May-29 16:28N 40°50' E 014°16'0 0.0
2017-May-29 15:58N 40°50' E 014°16'0 0.0
2017-May-29 15:28N 40°50' E 014°16'0 0.0
2017-May-29 14:55N 40°50' E 014°16'0 0.0
2017-May-29 14:28N 40°50' E 014°16'0 0.0
2017-May-29 11:28N 40°50' E 014°16'0 0.0
2017-May-29 10:58N 40°50' E 014°16'0 0.0
2017-May-29 10:16N 40°50' E 014°16'0 0.0
2017-May-29 09:43N 40°50' E 014°16'0 0.0
2017-May-29 09:19N 40°50' E 014°16'35 5.6
2017-May-29 03:07N 40°30' E 013°38'113.3
2017-May-29 03:00N 40°30' E 013°36'7613.8
2017-May-28 21:30N 40°49' E 011°59'1714.0
2017-May-28 20:19N 40°53' E 011°38'16815.0
2017-May-28 09:07N 41°21' E 007°58'316.2
2017-May-28 08:57N 41°21' E 007°54'816.3
2017-May-28 08:29N 41°21' E 007°44'1216.5
2017-May-28 07:47N 41°21' E 007°29'2216.5
2017-May-28 06:28N 41°20' E 006°60'1716.4
2017-May-28 05:26N 41°20' E 006°37'916.6
2017-May-28 04:54N 41°20' E 006°25'916.7
2017-May-28 04:22N 41°19' E 006°14'716.5
2017-May-28 03:57N 41°19' E 006°04'716.4
2017-May-28 03:31N 41°19' E 005°55'916.4
2017-May-28 02:58N 41°19' E 005°43'1716.5
2017-May-28 01:55N 41°19' E 005°20'716.5
2017-May-28 01:29N 41°19' E 005°10'1316.4
2017-May-28 00:43N 41°18' E 004°54'416.5
2017-May-28 00:28N 41°18' E 004°48'716.2
2017-May-28 00:01N 41°18' E 004°38'2515.9
2017-May-27 22:26N 41°18' E 004°05'716.2
2017-May-27 22:00N 41°18' E 003°55'816.1
2017-May-27 21:30N 41°18' E 003°45'816.1
2017-May-27 21:01N 41°17' E 003°34'816.0
2017-May-27 20:30N 41°17' E 003°24'816.1
2017-May-27 20:00N 41°17' E 003°13'816.1
2017-May-27 19:30N 41°17' E 003°02'816.1
2017-May-27 19:00N 41°17' E 002°51'815.9
2017-May-27 18:31N 41°16' E 002°41'916.0
2017-May-27 17:58N 41°16' E 002°29'716.1
2017-May-27 17:30N 41°16' E 002°20'714.1
2017-May-27 17:00N 41°18' E 002°10'4 7.9
2017-May-27 16:30N 41°22' E 002°11'0 0.1
2017-May-27 15:55N 41°22' E 002°11'0 0.0
2017-May-27 15:25N 41°22' E 002°11'0 0.0
2017-May-27 14:55N 41°22' E 002°11'0 0.0
2017-May-27 13:58N 41°22' E 002°11'0 0.0
2017-May-27 12:43N 41°22' E 002°11'0 0.0
2017-May-27 12:25N 41°22' E 002°11'0 0.0
2017-May-27 11:58N 41°22' E 002°11'0 0.0
2017-May-27 11:25N 41°22' E 002°11'0 0.0
2017-May-27 10:58N 41°22' E 002°11'0 0.0
2017-May-27 10:25N 41°22' E 002°11'0 0.0
2017-May-27 09:55N 41°22' E 002°11'0 0.0
2017-May-27 09:25N 41°22' E 002°11'0 0.0
2017-May-27 08:49N 41°22' E 002°11'0 0.0
2017-May-27 08:25N 41°22' E 002°11'0 0.0
2017-May-27 06:51N 41°22' E 002°11'1 1.8
2017-May-27 06:28N 41°21' E 002°10'5 7.4
2017-May-27 05:50N 41°16' E 002°12'3 7.7
2017-May-27 05:24N 41°16' E 002°16'511.9
2017-May-27 05:00N 41°17' E 002°22'713.3
2017-May-27 04:30N 41°17' E 002°31'714.0
2017-May-27 04:00N 41°20' E 002°39'714.6
2017-May-27 03:30N 41°24' E 002°48'914.5
2017-May-27 02:53N 41°28' E 002°58'614.4
2017-May-27 02:29N 41°31' E 003°05'1713.9
2017-May-27 01:16N 41°41' E 003°24'614.0
2017-May-27 00:50N 41°44' E 003°30'714.0
2017-May-27 00:18N 41°48' E 003°39'1013.9
2017-May-26 23:36N 41°54' E 003°49'313.6
2017-May-26 23:23N 41°56' E 003°52'514.2
2017-May-26 23:00N 41°59' E 003°58'815.5
2017-May-26 22:31N 42°03' E 004°07'816.0
2017-May-26 22:00N 42°08' E 004°16'816.1
2017-May-26 21:31N 42°13' E 004°24'816.1
2017-May-26 21:00N 42°17' E 004°33'916.2
2017-May-26 20:28N 42°22' E 004°43'816.4
2017-May-26 19:58N 42°27' E 004°52'816.0
2017-May-26 19:29N 42°31' E 005°01'1816.0
2017-May-26 18:21N 42°41' E 005°21'716.4
2017-May-26 17:57N 42°45' E 005°28'916.5
2017-May-26 17:26N 42°50' E 005°38'1016.4
2017-May-26 16:49N 42°56' E 005°49'516.1
2017-May-26 16:30N 42°59' E 005°55'612.7
2017-May-26 16:00N 43°05' E 005°57'2 4.1
2017-May-26 15:31N 43°07' E 005°56'0 0.7
2017-May-26 14:59N 43°07' E 005°56'0 0.0
2017-May-26 14:29N 43°07' E 005°56'0 0.0
2017-May-26 13:29N 43°07' E 005°56'0 0.0
2017-May-26 12:59N 43°07' E 005°56'0 0.0
2017-May-26 12:29N 43°07' E 005°56'0 0.0
2017-May-26 11:59N 43°07' E 005°56'0 0.0
2017-May-26 11:29N 43°07' E 005°56'0 0.0
2017-May-26 10:59N 43°07' E 005°56'0 0.0
2017-May-26 10:29N 43°07' E 005°56'0 0.0
2017-May-26 09:59N 43°07' E 005°56'0 0.0
2017-May-26 09:20N 43°07' E 005°56'0 0.0
2017-May-26 08:50N 43°07' E 005°56'0 0.0
2017-May-26 08:20N 43°07' E 005°56'0 0.0
2017-May-26 07:53N 43°07' E 005°56'0 0.0
2017-May-26 07:23N 43°07' E 005°56'0 0.0
2017-May-26 06:53N 43°07' E 005°56'0 0.0
2017-May-26 06:23N 43°07' E 005°56'0 0.5
2017-May-26 06:00N 43°07' E 005°56'2 4.1
2017-May-26 05:31N 43°05' E 005°57'23 7.5
2017-May-26 02:24N 42°47' E 006°17'11 7.9
2017-May-26 01:01N 42°42' E 006°30'0 7.3
2017-May-26 01:00N 42°42' E 006°30'5 2.9
2017-May-25 23:22N 42°44' E 006°36'6 5.4
2017-May-25 22:15N 42°49' E 006°42'20 8.4
2017-May-25 19:55N 43°04' E 006°58'4 8.6
2017-May-25 19:27N 43°07' E 007°01'4 8.7
2017-May-25 19:00N 43°10' E 007°05'5 8.7
2017-May-25 18:29N 43°14' E 007°09'4 8.7
2017-May-25 18:00N 43°17' E 007°13'4 8.8
2017-May-25 17:31N 43°20' E 007°16'4 8.8
2017-May-25 17:00N 43°25' E 007°16'4 8.8
2017-May-25 16:31N 43°29' E 007°17'4 8.7
2017-May-25 16:00N 43°34' E 007°18'4 8.6
2017-May-25 15:30N 43°38' E 007°18'4 7.2
2017-May-25 15:00N 43°42' E 007°19'0 0.0
2017-May-25 07:09N 43°42' E 007°19'0 0.0
2017-May-25 06:21N 43°42' E 007°19'0 0.1
2017-May-25 05:45N 43°42' E 007°19'0 0.1
2017-May-25 05:30N 43°42' E 007°19'1 2.7
2017-May-25 05:00N 43°40' E 007°19'4 8.3
2017-May-25 04:30N 43°39' E 007°25'5 9.8
2017-May-25 04:00N 43°39' E 007°31'611.2
2017-May-25 03:30N 43°38' E 007°39'611.8
2017-May-25 03:00N 43°38' E 007°47'611.8
2017-May-25 02:30N 43°38' E 007°55'611.9
2017-May-25 02:00N 43°37' E 008°04'611.7
2017-May-25 01:28N 43°37' E 008°12'511.4
2017-May-25 01:00N 43°37' E 008°19'611.1
2017-May-25 00:27N 43°36' E 008°28'613.8
2017-May-25 00:01N 43°36' E 008°36'714.1
2017-May-24 23:31N 43°35' E 008°46'713.9
2017-May-24 23:00N 43°35' E 008°56'714.1
2017-May-24 22:30N 43°35' E 009°05'714.0
2017-May-24 22:01N 43°35' E 009°15'714.2
2017-May-24 21:31N 43°35' E 009°25'714.0
2017-May-24 21:00N 43°33' E 009°34'713.9
2017-May-24 20:31N 43°33' E 009°44'713.8
2017-May-24 20:00N 43°32' E 009°53'612.7
2017-May-24 19:30N 43°31' E 010°02'611.1
2017-May-24 19:00N 43°31' E 010°10'510.1
2017-May-24 18:30N 43°32' E 010°16'2 3.2
2017-May-24 17:58N 43°33' E 010°18'0 0.0
2017-May-24 17:22N 43°33' E 010°18'0 0.0
2017-May-24 16:58N 43°33' E 010°18'0 0.0
2017-May-24 16:28N 43°33' E 010°18'0 0.0
2017-May-24 15:58N 43°33' E 010°18'0 0.0
2017-May-24 15:28N 43°33' E 010°18'0 0.0
2017-May-24 14:58N 43°33' E 010°18'0 0.0
2017-May-24 14:28N 43°33' E 010°18'0 0.0
2017-May-24 13:28N 43°33' E 010°18'0 0.0
2017-May-24 12:58N 43°33' E 010°18'0 0.0
2017-May-24 12:28N 43°33' E 010°18'0 0.0
2017-May-24 11:58N 43°33' E 010°18'0 0.0
2017-May-24 11:28N 43°33' E 010°18'0 0.0
2017-May-24 10:58N 43°33' E 010°18'0 0.0
2017-May-24 10:28N 43°33' E 010°18'0 0.0
2017-May-24 09:58N 43°33' E 010°18'0 0.0
2017-May-24 09:28N 43°33' E 010°18'0 0.0
2017-May-24 08:58N 43°33' E 010°18'0 0.0
2017-May-24 08:28N 43°33' E 010°18'0 0.0
2017-May-24 07:58N 43°33' E 010°18'0 0.0
2017-May-24 07:28N 43°33' E 010°18'0 0.0
2017-May-24 06:58N 43°33' E 010°18'0 0.0
2017-May-24 06:28N 43°33' E 010°18'0 0.0
2017-May-24 05:58N 43°33' E 010°18'0 0.6
2017-May-24 05:31N 43°33' E 010°18'2 3.6
2017-May-24 05:01N 43°32' E 010°16'612.6
2017-May-24 04:30N 43°26' E 010°12'713.7
2017-May-24 04:00N 43°20' E 010°10'510.6
2017-May-24 03:30N 43°14' E 010°09'611.7
2017-May-24 03:00N 43°09' E 010°07'611.6
2017-May-24 02:30N 43°03' E 010°06'611.5
2017-May-24 02:00N 42°57' E 010°04'510.9
2017-May-24 01:30N 42°52' E 010°03'612.3
2017-May-24 01:00N 42°46' E 010°02'713.5
2017-May-24 00:31N 42°40' E 010°07'1114.1
2017-May-23 23:45N 42°32' E 010°16'314.1
2017-May-23 23:30N 42°30' E 010°20'1014.0
2017-May-23 22:46N 42°22' E 010°29'413.9
2017-May-23 22:31N 42°19' E 010°32'713.7
2017-May-23 22:00N 42°14' E 010°38'713.5
2017-May-23 21:30N 42°09' E 010°44'1313.7
2017-May-23 20:33N 42°02' E 010°59'1413.1
2017-May-23 19:29N 42°02' E 011°18'22 1.6
2017-May-23 05:37N 42°06' E 011°47'0 0.9
2017-May-23 05:22N 42°06' E 011°47'1 3.8
2017-May-23 04:59N 42°07' E 011°45'610.9
2017-May-23 04:27N 42°01' E 011°42'714.0
2017-May-23 03:59N 41°55' E 011°45'814.0
2017-May-23 03:23N 41°48' E 011°51'714.4
2017-May-23 02:55N 41°43' E 011°56'714.2
2017-May-23 02:27N 41°37' E 012°02'614.1
2017-May-23 01:59N 41°32' E 012°07'714.1
2017-May-23 01:29N 41°26' E 012°12'714.1
2017-May-23 00:58N 41°20' E 012°18'914.0
2017-May-23 00:18N 41°13' E 012°25'413.8
2017-May-23 00:00N 41°10' E 012°28'713.7
2017-May-22 23:30N 41°04' E 012°34'913.3
2017-May-22 22:52N 40°57' E 012°40'514.5
2017-May-22 22:30N 40°53' E 012°44'815.2
2017-May-22 22:00N 40°48' E 012°53'816.2
2017-May-22 21:30N 40°46' E 013°03'816.0
2017-May-22 21:00N 40°44' E 013°13'815.9
2017-May-22 20:30N 40°42' E 013°23'815.7
2017-May-22 20:00N 40°40' E 013°33'1815.9
2017-May-22 18:51N 40°38' E 013°57'615.8
2017-May-22 18:29N 40°40' E 014°05'816.2
2017-May-22 18:00N 40°45' E 014°12'6 3.0
2017-May-22 15:59N 40°50' E 014°15'0 0.0
2017-May-22 15:29N 40°50' E 014°15'0 0.0
2017-May-22 14:56N 40°50' E 014°15'0 0.0
2017-May-22 13:59N 40°50' E 014°15'108 6.4
2017-May-21 21:01N 40°50' E 011°53'014.0
2017-May-21 21:00N 40°51' E 011°53'1014.0
2017-May-21 20:16N 40°53' E 011°40'613.9
2017-May-21 19:52N 40°55' E 011°33'513.7
2017-May-21 19:30N 40°56' E 011°26'713.7
2017-May-21 18:59N 40°58' E 011°17'713.4
2017-May-21 18:30N 40°60' E 011°09'713.4
2017-May-21 18:00N 41°02' E 011°00'713.5
2017-May-21 17:30N 41°03' E 010°51'713.5
2017-May-21 17:00N 41°05' E 010°43'713.3
2017-May-21 16:29N 41°07' E 010°34'713.5
2017-May-21 15:59N 41°09' E 010°26'713.9
2017-May-21 15:30N 41°11' E 010°17'713.7
2017-May-21 15:00N 41°12' E 010°08'1413.7
2017-May-21 13:59N 41°16' E 009°50'815.6
2017-May-21 13:30N 41°18' E 009°41'916.9
2017-May-21 12:59N 41°20' E 009°30'815.8
2017-May-21 12:30N 41°20' E 009°19'816.1
2017-May-21 12:00N 41°17' E 009°09'816.5
2017-May-21 11:30N 41°17' E 008°58'1016.1
2017-May-21 10:53N 41°17' E 008°45'615.9
2017-May-21 10:29N 41°18' E 008°37'816.0
2017-May-21 10:00N 41°20' E 008°27'815.8
2017-May-21 09:29N 41°21' E 008°16'816.1
2017-May-21 09:00N 41°21' E 008°06'816.1
2017-May-21 08:30N 41°21' E 007°55'816.3
2017-May-21 08:00N 41°21' E 007°44'916.2
2017-May-21 07:28N 41°21' E 007°33'816.1
2017-May-21 06:59N 41°20' E 007°22'816.0
2017-May-21 06:30N 41°20' E 007°12'915.9
2017-May-21 05:55N 41°20' E 006°59'716.0
2017-May-21 05:29N 41°20' E 006°50'816.0
2017-May-21 05:00N 41°20' E 006°40'1116.1
2017-May-21 04:19N 41°20' E 006°25'616.1
2017-May-21 03:58N 41°20' E 006°18'816.0
2017-May-21 03:27N 41°19' E 006°07'716.1
2017-May-21 02:59N 41°19' E 005°57'816.2
2017-May-21 02:29N 41°19' E 005°46'816.2
2017-May-21 01:58N 41°19' E 005°35'7016.6
2017-May-20 21:45N 41°18' E 004°02'716.7
2017-May-20 21:20N 41°18' E 003°52'1416.4
2017-May-20 20:28N 41°17' E 003°34'1816.3
2017-May-20 19:20N 41°17' E 003°09'1016.2
2017-May-20 18:44N 41°17' E 002°56'615.9
2017-May-20 18:20N 41°17' E 002°48'515.6
2017-May-20 18:00N 41°17' E 002°41'815.9
2017-May-20 17:30N 41°16' E 002°30'816.1
2017-May-20 17:00N 41°16' E 002°19'713.8
2017-May-20 16:30N 41°18' E 002°10'4 4.5
2017-May-20 15:36N 41°22' E 002°11'0 0.0
2017-May-20 15:30N 41°22' E 002°11'0 0.0
2017-May-20 15:00N 41°22' E 002°11'0 0.0
2017-May-20 10:00N 41°22' E 002°11'0 0.0
2017-May-20 09:18N 41°22' E 002°11'0 0.0
2017-May-20 09:00N 41°22' E 002°11'0 0.0
2017-May-20 08:24N 41°22' E 002°11'  
Track history (hours):
 
Tides and Currents Weather Stations Pressure Air Temp Water Temp Dewpoint Dewpoint Depression Visibility Wind Speed Wind Dir Waves Ship Positions

Sovereign

Last reported at 2017-May-29 20:30 UTC. Time now 2017-May-29 20:39 UTC.
Position N 40°44' E 013°16'.

Length 269 m; draft 7.8 m.

Type: Passenger vessel. MMSI: 249539000.

Date/timePositionNaut miles runAvg speedWind from/ knotsBaromVisibWave heightAir tempDewpointWater temp
2017-May-29 20:30N 40°44' E 013°16'815.7
2017-May-29 19:58N 40°42' E 013°27'715.6
2017-May-29 19:30N 40°40' E 013°36'815.8
2017-May-29 19:00N 40°38' E 013°46'815.7
2017-May-29 18:30N 40°38' E 013°56'714.7
2017-May-29 18:00N 40°41' E 014°05'916.0
2017-May-29 17:28N 40°46' E 014°14'4 8.9
2017-May-29 17:00N 40°50' E 014°16'0 0.1
2017-May-29 16:28N 40°50' E 014°16'0 0.0
2017-May-29 15:58N 40°50' E 014°16'0 0.0
2017-May-29 15:28N 40°50' E 014°16'0 0.0
2017-May-29 14:55N 40°50' E 014°16'0 0.0
2017-May-29 14:28N 40°50' E 014°16'0 0.0
2017-May-29 11:28N 40°50' E 014°16'0 0.0
2017-May-29 10:58N 40°50' E 014°16'0 0.0
2017-May-29 10:16N 40°50' E 014°16'0 0.0
2017-May-29 09:43N 40°50' E 014°16'0 0.0
2017-May-29 09:19N 40°50' E 014°16'35 5.6
2017-May-29 03:07N 40°30' E 013°38'113.3
2017-May-29 03:00N 40°30' E 013°36'7613.8
2017-May-28 21:30N 40°49' E 011°59'1714.0
2017-May-28 20:19N 40°53' E 011°38'16815.0
2017-May-28 09:07N 41°21' E 007°58'316.2
2017-May-28 08:57N 41°21' E 007°54'816.3
2017-May-28 08:29N 41°21' E 007°44'1216.5
2017-May-28 07:47N 41°21' E 007°29'2216.5
2017-May-28 06:28N 41°20' E 006°60'1716.4
2017-May-28 05:26N 41°20' E 006°37'916.6
2017-May-28 04:54N 41°20' E 006°25'916.7
2017-May-28 04:22N 41°19' E 006°14'716.5
2017-May-28 03:57N 41°19' E 006°04'716.4
2017-May-28 03:31N 41°19' E 005°55'916.4
2017-May-28 02:58N 41°19' E 005°43'1716.5
2017-May-28 01:55N 41°19' E 005°20'716.5
2017-May-28 01:29N 41°19' E 005°10'1316.4
2017-May-28 00:43N 41°18' E 004°54'416.5
2017-May-28 00:28N 41°18' E 004°48'716.2
2017-May-28 00:01N 41°18' E 004°38'2515.9
2017-May-27 22:26N 41°18' E 004°05'716.2
2017-May-27 22:00N 41°18' E 003°55'816.1
2017-May-27 21:30N 41°18' E 003°45'816.1
2017-May-27 21:01N 41°17' E 003°34'816.0
2017-May-27 20:30N 41°17' E 003°24'816.1
2017-May-27 20:00N 41°17' E 003°13'816.1
2017-May-27 19:30N 41°17' E 003°02'816.1
2017-May-27 19:00N 41°17' E 002°51'815.9
2017-May-27 18:31N 41°16' E 002°41'916.0
2017-May-27 17:58N 41°16' E 002°29'716.1
2017-May-27 17:30N 41°16' E 002°20'714.1
2017-May-27 17:00N 41°18' E 002°10'4 7.9
2017-May-27 16:30N 41°22' E 002°11'0 0.1
2017-May-27 15:55N 41°22' E 002°11'0 0.0
2017-May-27 15:25N 41°22' E 002°11'0 0.0
2017-May-27 14:55N 41°22' E 002°11'0 0.0
2017-May-27 13:58N 41°22' E 002°11'0 0.0
2017-May-27 12:43N 41°22' E 002°11'0 0.0
2017-May-27 12:25N 41°22' E 002°11'0 0.0
2017-May-27 11:58N 41°22' E 002°11'0 0.0
2017-May-27 11:25N 41°22' E 002°11'0 0.0
2017-May-27 10:58N 41°22' E 002°11'0 0.0
2017-May-27 10:25N 41°22' E 002°11'0 0.0
2017-May-27 09:55N 41°22' E 002°11'0 0.0
2017-May-27 09:25N 41°22' E 002°11'0 0.0
2017-May-27 08:49N 41°22' E 002°11'0 0.0
2017-May-27 08:25N 41°22' E 002°11'0 0.0
2017-May-27 06:51N 41°22' E 002°11'1 1.8
2017-May-27 06:28N 41°21' E 002°10'5 7.4
2017-May-27 05:50N 41°16' E 002°12'3 7.7
2017-May-27 05:24N 41°16' E 002°16'511.9
2017-May-27 05:00N 41°17' E 002°22'713.3
2017-May-27 04:30N 41°17' E 002°31'714.0
2017-May-27 04:00N 41°20' E 002°39'714.6
2017-May-27 03:30N 41°24' E 002°48'914.5
2017-May-27 02:53N 41°28' E 002°58'614.4
2017-May-27 02:29N 41°31' E 003°05'1713.9
2017-May-27 01:16N 41°41' E 003°24'614.0
2017-May-27 00:50N 41°44' E 003°30'714.0
2017-May-27 00:18N 41°48' E 003°39'1013.9
2017-May-26 23:36N 41°54' E 003°49'313.6
2017-May-26 23:23N 41°56' E 003°52'514.2
2017-May-26 23:00N 41°59' E 003°58'815.5
2017-May-26 22:31N 42°03' E 004°07'816.0
2017-May-26 22:00N 42°08' E 004°16'816.1
2017-May-26 21:31N 42°13' E 004°24'816.1
2017-May-26 21:00N 42°17' E 004°33'916.2
2017-May-26 20:28N 42°22' E 004°43'816.4
2017-May-26 19:58N 42°27' E 004°52'816.0
2017-May-26 19:29N 42°31' E 005°01'1816.0
2017-May-26 18:21N 42°41' E 005°21'716.4
2017-May-26 17:57N 42°45' E 005°28'916.5
2017-May-26 17:26N 42°50' E 005°38'1016.4
2017-May-26 16:49N 42°56' E 005°49'516.1
2017-May-26 16:30N 42°59' E 005°55'612.7
2017-May-26 16:00N 43°05' E 005°57'2 4.1
2017-May-26 15:31N 43°07' E 005°56'0 0.7
2017-May-26 14:59N 43°07' E 005°56'0 0.0
2017-May-26 14:29N 43°07' E 005°56'0 0.0
2017-May-26 13:29N 43°07' E 005°56'0 0.0
2017-May-26 12:59N 43°07' E 005°56'0 0.0
2017-May-26 12:29N 43°07' E 005°56'0 0.0
2017-May-26 11:59N 43°07' E 005°56'0 0.0
2017-May-26 11:29N 43°07' E 005°56'0 0.0
2017-May-26 10:59N 43°07' E 005°56'0 0.0
2017-May-26 10:29N 43°07' E 005°56'0 0.0
2017-May-26 09:59N 43°07' E 005°56'0 0.0
2017-May-26 09:20N 43°07' E 005°56'0 0.0
2017-May-26 08:50N 43°07' E 005°56'0 0.0
2017-May-26 08:20N 43°07' E 005°56'0 0.0
2017-May-26 07:53N 43°07' E 005°56'0 0.0
2017-May-26 07:23N 43°07' E 005°56'0 0.0
2017-May-26 06:53N 43°07' E 005°56'0 0.0
2017-May-26 06:23N 43°07' E 005°56'0 0.5
2017-May-26 06:00N 43°07' E 005°56'2 4.1
2017-May-26 05:31N 43°05' E 005°57'23 7.5
2017-May-26 02:24N 42°47' E 006°17'11 7.9
2017-May-26 01:01N 42°42' E 006°30'0 7.3
2017-May-26 01:00N 42°42' E 006°30'5 2.9
2017-May-25 23:22N 42°44' E 006°36'6 5.4
2017-May-25 22:15N 42°49' E 006°42'20 8.4
2017-May-25 19:55N 43°04' E 006°58'4 8.6
2017-May-25 19:27N 43°07' E 007°01'4 8.7
2017-May-25 19:00N 43°10' E 007°05'5 8.7
2017-May-25 18:29N 43°14' E 007°09'4 8.7
2017-May-25 18:00N 43°17' E 007°13'4 8.8
2017-May-25 17:31N 43°20' E 007°16'4 8.8
2017-May-25 17:00N 43°25' E 007°16'4 8.8
2017-May-25 16:31N 43°29' E 007°17'4 8.7
2017-May-25 16:00N 43°34' E 007°18'4 8.6
2017-May-25 15:30N 43°38' E 007°18'4 7.2
2017-May-25 15:00N 43°42' E 007°19'0 0.0
2017-May-25 07:09N 43°42' E 007°19'0 0.0
2017-May-25 06:21N 43°42' E 007°19'0 0.1
2017-May-25 05:45N 43°42' E 007°19'0 0.1
2017-May-25 05:30N 43°42' E 007°19'1 2.7
2017-May-25 05:00N 43°40' E 007°19'4 8.3
2017-May-25 04:30N 43°39' E 007°25'5 9.8
2017-May-25 04:00N 43°39' E 007°31'611.2
2017-May-25 03:30N 43°38' E 007°39'611.8
2017-May-25 03:00N 43°38' E 007°47'611.8
2017-May-25 02:30N 43°38' E 007°55'611.9
2017-May-25 02:00N 43°37' E 008°04'611.7
2017-May-25 01:28N 43°37' E 008°12'511.4
2017-May-25 01:00N 43°37' E 008°19'611.1
2017-May-25 00:27N 43°36' E 008°28'613.8
2017-May-25 00:01N 43°36' E 008°36'714.1
2017-May-24 23:31N 43°35' E 008°46'713.9
2017-May-24 23:00N 43°35' E 008°56'714.1
2017-May-24 22:30N 43°35' E 009°05'714.0
2017-May-24 22:01N 43°35' E 009°15'714.2
2017-May-24 21:31N 43°35' E 009°25'714.0
2017-May-24 21:00N 43°33' E 009°34'713.9
2017-May-24 20:31N 43°33' E 009°44'713.8
2017-May-24 20:00N 43°32' E 009°53'612.7
2017-May-24 19:30N 43°31' E 010°02'611.1
2017-May-24 19:00N 43°31' E 010°10'510.1
2017-May-24 18:30N 43°32' E 010°16'2 3.2
2017-May-24 17:58N 43°33' E 010°18'0 0.0
2017-May-24 17:22N 43°33' E 010°18'0 0.0
2017-May-24 16:58N 43°33' E 010°18'0 0.0
2017-May-24 16:28N 43°33' E 010°18'0 0.0
2017-May-24 15:58N 43°33' E 010°18'0 0.0
2017-May-24 15:28N 43°33' E 010°18'0 0.0
2017-May-24 14:58N 43°33' E 010°18'0 0.0
2017-May-24 14:28N 43°33' E 010°18'0 0.0
2017-May-24 13:28N 43°33' E 010°18'0 0.0
2017-May-24 12:58N 43°33' E 010°18'0 0.0
2017-May-24 12:28N 43°33' E 010°18'0 0.0
2017-May-24 11:58N 43°33' E 010°18'0 0.0
2017-May-24 11:28N 43°33' E 010°18'0 0.0
2017-May-24 10:58N 43°33' E 010°18'0 0.0
2017-May-24 10:28N 43°33' E 010°18'0 0.0
2017-May-24 09:58N 43°33' E 010°18'0 0.0
2017-May-24 09:28N 43°33' E 010°18'0 0.0
2017-May-24 08:58N 43°33' E 010°18'0 0.0
2017-May-24 08:28N 43°33' E 010°18'0 0.0
2017-May-24 07:58N 43°33' E 010°18'0 0.0
2017-May-24 07:28N 43°33' E 010°18'0 0.0
2017-May-24 06:58N 43°33' E 010°18'0 0.0
2017-May-24 06:28N 43°33' E 010°18'0 0.0
2017-May-24 05:58N 43°33' E 010°18'0 0.6
2017-May-24 05:31N 43°33' E 010°18'2 3.6
2017-May-24 05:01N 43°32' E 010°16'612.6
2017-May-24 04:30N 43°26' E 010°12'713.7
2017-May-24 04:00N 43°20' E 010°10'510.6
2017-May-24 03:30N 43°14' E 010°09'611.7
2017-May-24 03:00N 43°09' E 010°07'611.6
2017-May-24 02:30N 43°03' E 010°06'611.5
2017-May-24 02:00N 42°57' E 010°04'510.9
2017-May-24 01:30N 42°52' E 010°03'612.3
2017-May-24 01:00N 42°46' E 010°02'713.5
2017-May-24 00:31N 42°40' E 010°07'1114.1
2017-May-23 23:45N 42°32' E 010°16'314.1
2017-May-23 23:30N 42°30' E 010°20'1014.0
2017-May-23 22:46N 42°22' E 010°29'413.9
2017-May-23 22:31N 42°19' E 010°32'713.7
2017-May-23 22:00N 42°14' E 010°38'713.5
2017-May-23 21:30N 42°09' E 010°44'1313.7
2017-May-23 20:33N 42°02' E 010°59'1413.1
2017-May-23 19:29N 42°02' E 011°18'22 1.6
2017-May-23 05:37N 42°06' E 011°47'0 0.9
2017-May-23 05:22N 42°06' E 011°47'1 3.8
2017-May-23 04:59N 42°07' E 011°45'610.9
2017-May-23 04:27N 42°01' E 011°42'714.0
2017-May-23 03:59N 41°55' E 011°45'814.0
2017-May-23 03:23N 41°48' E 011°51'714.4
2017-May-23 02:55N 41°43' E 011°56'714.2
2017-May-23 02:27N 41°37' E 012°02'614.1
2017-May-23 01:59N 41°32' E 012°07'714.1
2017-May-23 01:29N 41°26' E 012°12'714.1
2017-May-23 00:58N 41°20' E 012°18'914.0
2017-May-23 00:18N 41°13' E 012°25'413.8
2017-May-23 00:00N 41°10' E 012°28'713.7
2017-May-22 23:30N 41°04' E 012°34'913.3
2017-May-22 22:52N 40°57' E 012°40'514.5
2017-May-22 22:30N 40°53' E 012°44'815.2
2017-May-22 22:00N 40°48' E 012°53'816.2
2017-May-22 21:30N 40°46' E 013°03'816.0
2017-May-22 21:00N 40°44' E 013°13'815.9
2017-May-22 20:30N 40°42' E 013°23'815.7
2017-May-22 20:00N 40°40' E 013°33'1815.9
2017-May-22 18:51N 40°38' E 013°57'615.8
2017-May-22 18:29N 40°40' E 014°05'816.2
2017-May-22 18:00N 40°45' E 014°12'6 3.0
2017-May-22 15:59N 40°50' E 014°15'0 0.0
2017-May-22 15:29N 40°50' E 014°15'0 0.0
2017-May-22 14:56N 40°50' E 014°15'0 0.0
2017-May-22 13:59N 40°50' E 014°15'108 6.4
2017-May-21 21:01N 40°50' E 011°53'014.0
2017-May-21 21:00N 40°51' E 011°53'1014.0
2017-May-21 20:16N 40°53' E 011°40'613.9
2017-May-21 19:52N 40°55' E 011°33'513.7
2017-May-21 19:30N 40°56' E 011°26'713.7
2017-May-21 18:59N 40°58' E 011°17'713.4
2017-May-21 18:30N 40°60' E 011°09'713.4
2017-May-21 18:00N 41°02' E 011°00'713.5
2017-May-21 17:30N 41°03' E 010°51'713.5
2017-May-21 17:00N 41°05' E 010°43'713.3
2017-May-21 16:29N 41°07' E 010°34'713.5
2017-May-21 15:59N 41°09' E 010°26'713.9
2017-May-21 15:30N 41°11' E 010°17'713.7
2017-May-21 15:00N 41°12' E 010°08'1413.7
2017-May-21 13:59N 41°16' E 009°50'815.6
2017-May-21 13:30N 41°18' E 009°41'916.9
2017-May-21 12:59N 41°20' E 009°30'815.8
2017-May-21 12:30N 41°20' E 009°19'816.1
2017-May-21 12:00N 41°17' E 009°09'816.5
2017-May-21 11:30N 41°17' E 008°58'1016.1
2017-May-21 10:53N 41°17' E 008°45'615.9
2017-May-21 10:29N 41°18' E 008°37'816.0
2017-May-21 10:00N 41°20' E 008°27'815.8
2017-May-21 09:29N 41°21' E 008°16'816.1
2017-May-21 09:00N 41°21' E 008°06'816.1
2017-May-21 08:30N 41°21' E 007°55'816.3
2017-May-21 08:00N 41°21' E 007°44'916.2
2017-May-21 07:28N 41°21' E 007°33'816.1
2017-May-21 06:59N 41°20' E 007°22'816.0
2017-May-21 06:30N 41°20' E 007°12'915.9
2017-May-21 05:55N 41°20' E 006°59'716.0
2017-May-21 05:29N 41°20' E 006°50'816.0
2017-May-21 05:00N 41°20' E 006°40'1116.1
2017-May-21 04:19N 41°20' E 006°25'616.1
2017-May-21 03:58N 41°20' E 006°18'816.0
2017-May-21 03:27N 41°19' E 006°07'716.1
2017-May-21 02:59N 41°19' E 005°57'816.2
2017-May-21 02:29N 41°19' E 005°46'816.2
2017-May-21 01:58N 41°19' E 005°35'7016.6
2017-May-20 21:45N 41°18' E 004°02'716.7
2017-May-20 21:20N 41°18' E 003°52'1416.4
2017-May-20 20:28N 41°17' E 003°34'1816.3
2017-May-20 19:20N 41°17' E 003°09'1016.2
2017-May-20 18:44N 41°17' E 002°56'615.9
2017-May-20 18:20N 41°17' E 002°48'515.6
2017-May-20 18:00N 41°17' E 002°41'815.9
2017-May-20 17:30N 41°16' E 002°30'816.1
2017-May-20 17:00N 41°16' E 002°19'713.8
2017-May-20 16:30N 41°18' E 002°10'4 4.5
2017-May-20 15:36N 41°22' E 002°11'0 0.0
2017-May-20 15:30N 41°22' E 002°11'0 0.0
2017-May-20 15:00N 41°22' E 002°11'0 0.0
2017-May-20 10:00N 41°22' E 002°11'0 0.0
2017-May-20 09:18N 41°22' E 002°11'0 0.0
2017-May-20 09:00N 41°22' E 002°11'0 0.0
2017-May-20 08:24N 41°22' E 002°11'  

Dump ship's entire track history